Tanglewood Acres, Colorado
Current Conditions -  °F | °C
As of 6:25 AM on Thursday 18 Dec 2014 (Local Time) from K1V6 Reporting Station
Clear Clear  
Wind Chill: 19°   Ceiling: Unl
Heat Index: 27°   Visibility: 10mi
Dew Point: 21°   Wind: 7mph
Humidity: 80%   Direction: 230°SW
Pressure: 30.02"   Gusts: NA
Location:  38.1037°N, 105.445°W
Report Text: K1V6 181325Z AUTO 23006KT 10SM CLR M03/M06 A3002 RMK AO2
Loading
Personal Weather Stations






























Interactive Weather Map New forecast layout! Learn more

10-Day Weather Forecast

Advertisements
Track Severe Weather on mobile